Aérodrome :
LOGIN :

S'inscrire | Disclaimer

   EN    FR    IT 

 










Légende :    VFR   VFR Marginal   IFR   IFR Intensif   IFR Très Intensif
Visi : 
Plafond : 
>= 8 km
>= 3000ft
5 à 8 km
1000 à 3000 ft
1500m à 5 km
500 à 1000 ft
800 à 1500m
200 à 500 ft
< 800m
< 200 ft
Symboles :   Orages  Brouillard  Fortes neiges  Fortes précipitations  Vent > 20 kt
SIGMETs :   Divers  Orages  Givrage  Turbulence  Onde Orograph.  Cendres Volcan.







- Altitude de l'aérodrome : 202 ft
- Code IATA : LGW
- Voir les cartes d'approche


EGKK - London Gatwick

DERNIER METAR :
  • 210450Z 26003KT 8000 FEW006 01/01 Q1014

METARs EXPIRÉS :
  • 210420Z VRB02KT 8000 FEW007 02/01 Q1014
  • 210350Z 32005KT 9000 SCT007 02/01 Q1014
  • 210320Z 32005KT 9000 BKN008 02/01 Q1014
  • 210250Z 33004KT 9000 BKN008 02/01 Q1014
  • 210220Z 30006KT 9999 BKN009 02/01 Q1013
  • 210150Z 29004KT 9999 BKN010 02/01 Q1013

TAF TAF EGKK
Valide du 21 à 00h jusqu'au 22 à 06h UTC


202308Z 2100/2206 02006KT 9999 SCT020
TEMPO 2100/2107 3000 BR BKN006
BECMG 2107/2110 14010KT 7000 -RA BKN010
TEMPO 2109/2121 4000 -RADZ BR BKN006
PROB40
TEMPO 2110/2118 RADZ BKN004
BECMG 2116/2119 23010KT
TEMPO 2121/2124 BKN008
BECMG 2122/2201 9999 NSW
Pas de NOTAMs connus pour ce terrain.
1 SIGMET publié pour la FIR London (EGTT) :
 
Givrage fort
EGTT SIGMET 02 VALID 210435/210715 EGRR
EGTT LONDON FIR SEV ICE FCST WI N5500 W00530 - N5500 W00313 - N5321 W00005 - N5120 W00240 - N5231 W00530 - N5500 W00530 FL020/140 MOV ESE 15KT NC=



MET'MAP, la Météo Aéronautique d'un coup d'oeil ! - Copyright ORBIFLY Décembre 2007 - Disclaimer

ORBIFLY MET'MAP TEAM :

Programmation & Développement : Alexandra Zaïnal
Conception & Développement : Baudouin d'Aumeries
Co-Programmation & Développement : Marc-Olivier Méhu
Soutien technique & logistique : Manuel Goepfert

Contact : metmap@orbifly.com




SOURCES & CREDITS :

   NOAA